Latest Weather Observations for Lucinda

IDQ60801

Issued at 10:22 pm EST Friday 15 November 2019 (issued every 10 minutes, with the page automatically refreshed every 10 minutes)

About weather observations | Map of weather stations | Latest weather observations for QLD | Other Formats
Station Details ID: 032141 Name: LUCINDA POINT Lat: -18.52 Lon: 146.39 Height: 10.0 m
Data from the previous 72 hours. | See also: Recent months at Lucinda
Date/Time
EST
Temp
°C
App
Temp
°C
Dew
Point
°C
Rel
Hum
%
Delta-T
°C
Wind Press
QNH
hPa
Press
MSL
hPa
Rain since
9am
mm
Dir  Spd
km/h
Gust
km/h
Spd
kts
Gust
kts
15/10:00pm 25.8 25.3 19.9 70 3.8 NNE 22 26 12 14 1014.8 1014.7 0.0
15/09:30pm 25.8 24.5 19.0 66 4.4 NNE 24 30 13 16 1014.6 1014.5 0.0
15/09:00pm 25.8 24.8 19.7 69 3.9 NNE 24 30 13 16 1014.3 1014.2 0.0
15/08:30pm 25.7 25.4 19.1 67 4.2 NNE 19 24 10 13 1014.3 1014.2 0.0
15/08:00pm 25.9 25.7 19.8 69 4.0 NNE 20 26 11 14 1014.0 1013.9 0.0
15/07:30pm 25.9 24.4 19.5 68 4.1 NE 26 30 14 16 1013.4 1013.3 0.0
15/07:00pm 26.1 25.1 20.4 71 3.7 NE 26 30 14 16 1012.9 1012.8 0.0
15/06:30pm 25.9 24.2 19.8 69 4.0 NE 28 32 15 17 1012.6 1012.5 0.0
15/06:00pm 25.8 23.1 19.2 67 4.2 NE 32 35 17 19 1012.2 1012.1 0.0
15/05:30pm 26.0 24.0 19.9 69 4.0 NE 30 35 16 19 1011.9 1011.8 0.0
15/05:00pm 25.9 24.1 19.5 68 4.1 NE 28 32 15 17 1011.7 1011.6 0.0
15/04:30pm 25.9 24.3 19.3 67 4.2 NE 26 32 14 17 1011.5 1011.4 0.0
15/04:00pm 26.2 24.7 20.3 70 3.9 NE 28 32 15 17 1011.3 1011.2 0.0
15/03:30pm 26.0 24.3 19.9 69 4.0 NE 28 32 15 17 1011.3 1011.2 0.0
15/03:00pm 25.9 24.3 19.3 67 4.2 NE 26 30 14 16 1011.3 1011.2 0.0
15/02:30pm 26.1 25.4 20.2 70 3.8 NE 24 30 13 16 1011.6 1011.5 0.0
15/02:00pm 25.8 23.4 19.2 67 4.2 NE 30 33 16 18 1011.6 1011.5 0.0
15/01:30pm 25.9 23.7 18.8 65 4.5 NNE 28 32 15 17 1012.1 1012.0 0.0
15/01:00pm 26.3 24.5 18.7 63 4.9 NNE 26 30 14 16 1012.6 1012.5 0.0
15/12:30pm 26.7 25.2 18.6 61 5.2 NNE 24 30 13 16 1012.9 1012.8 0.0
15/12:00pm 26.2 24.9 19.1 65 4.6 NNE 24 30 13 16 1013.1 1013.0 0.0
15/11:30am 26.1 25.2 19.0 65 4.5 NNE 22 26 12 14 1013.4 1013.3 0.0
15/11:00am 26.7 26.0 19.6 65 4.6 NNE 22 26 12 14 1013.6 1013.5 0.0
15/10:30am 26.0 24.9 19.4 67 4.3 NNE 24 28 13 15 1013.6 1013.5 0.0
15/10:00am 26.7 26.5 19.8 66 4.5 NNE 20 24 11 13 1013.9 1013.8 0.0
15/09:30am 26.3 25.9 19.4 66 4.5 NNE 20 26 11 14 1013.9 1013.8 0.0
15/09:00am 26.1 25.8 19.5 67 4.3 NNE 20 24 11 13 1013.9 1013.8 0.0
15/08:30am 26.1 25.5 18.8 64 4.7 NNE 20 24 11 13 1013.8 1013.7 0.0
15/08:00am 26.1 25.7 18.8 64 4.7 NNE 19 24 10 13 1013.5 1013.4 0.0
15/07:30am 26.2 25.8 19.3 65 4.4 NNE 20 24 11 13 1013.0 1012.9 0.0
15/07:00am 25.7 26.0 19.6 69 3.9 NNE 17 20 9 11 1012.9 1012.8 0.0
15/06:30am 25.6 25.9 19.5 69 3.9 NE 17 22 9 12 1012.5 1012.4 0.0
15/06:00am 25.5 25.3 19.4 69 3.9 NE 19 22 10 12 1012.3 1012.2 0.0
15/05:30am 25.5 25.2 19.6 70 3.8 NE 20 26 11 14 1011.9 1011.8 0.0
15/05:00am 25.4 25.2 19.3 69 3.9 NNE 19 22 10 12 1011.5 1011.4 0.0
15/04:30am 25.5 25.0 19.2 68 4.0 NNE 20 24 11 13 1011.3 1011.2 0.0
15/04:00am 25.4 25.0 19.3 69 3.9 N 20 26 11 14 1011.1 1011.0 0.0
15/03:30am 25.2 24.6 18.9 68 4.0 NNE 20 26 11 14 1011.0 1010.9 0.0
15/03:00am 25.3 24.4 19.0 68 4.0 N 22 28 12 15 1010.7 1010.6 0.0
15/02:30am 25.3 24.6 19.4 70 3.8 N 22 28 12 15 1010.6 1010.5 0.0
15/02:00am 25.4 24.6 19.3 69 3.9 N 22 26 12 14 1010.6 1010.5 0.0
15/01:30am 25.6 24.6 19.7 70 3.8 N 24 30 13 16 1010.8 1010.7 0.0
15/01:00am 25.4 24.5 19.1 68 4.0 N 22 28 12 15 1011.0 1010.9 0.0
15/12:30am 25.3 24.1 19.2 69 3.9 NNW 24 32 13 17 1011.3 1011.2 0.0
15/12:00am 25.5 24.5 19.6 70 3.8 N 24 33 13 18 1011.7 1011.6 0.0
 
Date/Time
EST
Temp
°C
App
Temp
°C
Dew
Point
°C
Rel
Hum
%
Delta-T
°C
Wind Press
QNH
hPa
Press
MSL
hPa
Rain since
9am
mm
Dir  Spd
km/h
Gust
km/h
Spd
kts
Gust
kts
14/11:30pm 25.7 24.6 20.3 72 3.5 N 26 33 14 18 1012.0 1011.9 0.0
14/11:00pm 25.4 23.8 19.3 69 3.9 N 26 35 14 19 1012.2 1012.1 0.0
14/10:30pm 25.5 24.1 19.6 70 3.8 N 26 32 14 17 1012.5 1012.4 0.0
14/10:00pm 25.7 23.9 20.3 72 3.5 NNE 30 35 16 19 1012.2 1012.1 0.0
14/09:30pm 25.7 24.3 20.5 73 3.4 N 28 35 15 19 1012.3 1012.2 0.0
14/09:00pm 25.7 24.0 20.5 73 3.4 N 30 35 16 19 1012.2 1012.1 0.0
14/08:30pm 26.1 24.3 21.1 74 3.3 N 32 37 17 20 1012.0 1011.9 0.0
14/08:00pm 25.8 23.3 20.1 71 3.7 NNE 33 39 18 21 1011.6 1011.5 0.0
14/07:30pm 25.7 23.6 19.8 70 3.8 N 30 35 16 19 1011.6 1011.5 0.0
14/07:00pm 25.8 24.0 20.4 72 3.5 NNE 30 35 16 19 1011.3 1011.2 0.0
14/06:30pm 25.7 23.6 20.5 73 3.4 NNE 32 37 17 20 1011.0 1010.9 0.0
14/06:00pm 26.0 23.6 20.3 71 3.7 NNE 33 41 18 22 1010.5 1010.4 0.0
14/05:30pm 26.4 24.5 20.9 72 3.6 N 32 39 17 21 1010.3 1010.2 0.0
14/05:00pm 26.4 24.3 20.5 70 3.9 N 32 39 17 21 1010.1 1010.0 0.0
14/04:30pm 26.4 24.5 20.9 72 3.6 NNE 32 39 17 21 1009.9 1009.8 0.0
14/04:00pm 26.3 24.3 20.8 71 3.6 NNE 32 35 17 19 1010.0 1009.9 0.0
14/03:30pm 26.2 24.8 20.5 71 3.7 NNE 28 35 15 19 1010.2 1010.1 0.0
14/03:00pm 26.1 24.6 20.2 70 3.9 NNE 28 33 15 18 1010.4 1010.3 0.0
14/02:30pm 26.2 25.5 21.0 73 3.4 NNE 26 30 14 16 1010.6 1010.5 0.0
14/02:00pm 26.1 25.7 20.9 73 3.4 NE 24 28 13 15 1010.9 1010.8 0.0
14/01:30pm 25.8 25.0 20.1 71 3.7 NE 24 26 13 14 1011.1 1011.0 0.0
14/01:00pm 26.1 25.5 20.4 71 3.7 NNE 24 28 13 15 1011.5 1011.4 0.0
14/12:30pm 26.1 25.8 20.4 71 3.7 NNE 22 26 12 14 1011.9 1011.8 0.0
14/12:00pm 26.1 26.0 20.0 69 4.0 NNE 20 24 11 13 1012.3 1012.2 0.0
14/11:30am 26.1 26.1 20.2 70 3.8 NNE 20 22 11 12 1012.6 1012.5 0.0
14/11:00am 26.4 26.7 20.5 70 3.9 NNE 19 22 10 12 1013.0 1012.9 0.0
14/10:30am 26.3 27.3 20.2 69 4.0 NNE 15 19 8 10 1013.1 1013.0 0.0
14/10:00am 27.4 29.0 19.2 61 5.3 N 9 11 5 6 1013.4 1013.3 0.0
14/09:30am 27.0 29.5 19.9 65 4.6 W 6 9 3 5 1013.7 1013.6 0.0
14/09:00am 25.9 27.8 19.8 69 4.0 W 9 13 5 7 1013.7 1013.6 0.0
14/08:30am 25.0 26.4 20.3 75 3.1 WSW 13 17 7 9 1013.8 1013.7 0.0
14/08:00am 24.5 25.1 20.2 77 2.8 SW 17 20 9 11 1013.7 1013.6 0.0
14/07:30am 24.1 25.3 20.0 78 2.6 WSW 13 17 7 9 1013.2 1013.1 0.0
14/07:00am 24.5 25.9 20.4 78 2.7 W 13 15 7 8 1012.7 1012.6 0.0
14/06:30am 24.6 26.4 20.3 77 2.8 WNW 11 19 6 10 1012.3 1012.2 0.0
14/06:00am 24.8 24.8 20.1 75 3.1 NNW 20 26 11 14 1011.8 1011.7 0.0
14/05:30am 24.6 24.6 20.1 76 2.9 NNW 20 26 11 14 1011.3 1011.2 0.0
14/05:00am 24.7 24.2 20.0 75 3.0 NNW 22 30 12 16 1010.8 1010.7 0.0
14/04:30am 24.7 25.7 20.2 76 2.9 NW 15 19 8 10 1010.8 1010.7 0.0
14/04:00am 24.8 25.0 20.1 75 3.1 NW 19 26 10 14 1010.6 1010.5 0.0
14/03:30am 24.8 25.0 20.1 75 3.0 NW 19 24 10 13 1010.5 1010.4 0.0
14/03:00am 24.8 25.9 19.6 73 3.4 NW 13 20 7 11 1010.4 1010.3 0.0
14/02:30am 24.9 24.9 19.7 73 3.4 NW 19 22 10 12 1010.3 1010.2 0.0
14/02:00am 25.2 26.4 20.0 73 3.4 NW 13 20 7 11 1010.6 1010.5 0.0
14/01:30am 25.3 25.2 19.9 72 3.5 NW 20 28 11 15 1010.8 1010.7 0.0
14/01:00am 25.3 24.4 19.9 72 3.5 NNW 24 30 13 16 1011.0 1010.9 0.0
14/12:30am 25.6 25.6 20.2 72 3.5 NNW 20 30 11 16 1011.5 1011.4 0.0
14/12:00am 25.7 24.2 20.3 72 3.5 NNW 28 33 15 18 1011.8 1011.7 0.0
 
Date/Time
EST
Temp
°C
App
Temp
°C
Dew
Point
°C
Rel
Hum
%
Delta-T
°C
Wind Press
QNH
hPa
Press
MSL
hPa
Rain since
9am
mm
Dir  Spd
km/h
Gust
km/h
Spd
kts
Gust
kts
13/11:30pm 25.6 23.5 19.7 70 3.8 NNW 30 35 16 19 1012.1 1012.0 0.0
13/11:00pm 25.8 24.6 20.1 71 3.7 NNW 26 33 14 18 1012.4 1012.3 0.0
13/10:30pm 25.7 24.4 19.8 70 3.8 NNW 26 33 14 18 1012.7 1012.6 0.0
13/10:00pm 25.7 23.9 19.6 69 3.9 NNW 28 33 15 18 1012.7 1012.6 0.0
13/09:30pm 25.7 24.4 19.8 70 3.8 NNW 26 33 14 18 1012.5 1012.4 0.0
13/09:00pm 25.6 23.8 19.5 69 3.9 N 28 35 15 19 1012.3 1012.2 0.0
13/08:30pm 25.6 23.4 19.5 69 3.9 N 30 39 16 21 1012.2 1012.1 0.0
13/08:00pm 25.7 23.6 19.8 70 3.8 N 30 39 16 21 1011.9 1011.8 0.0
13/07:30pm 25.6 23.0 19.5 69 3.9 N 32 39 17 21 1011.7 1011.6 0.0
13/07:00pm 25.6 22.1 19.5 69 3.9 N 37 44 20 24 1011.1 1011.0 0.0
13/06:30pm 25.5 21.5 19.4 69 3.9 N 39 46 21 25 1011.0 1010.9 0.0
13/06:00pm 25.8 21.7 19.9 70 3.8 N 41 46 22 25 1010.4 1010.3 0.0
13/05:30pm 26.1 22.4 20.0 69 4.0 N 39 46 21 25 1010.3 1010.2 0.0
13/05:00pm 26.1 22.8 20.0 69 4.0 NNE 37 43 20 23 1010.0 1009.9 0.0
13/04:30pm 26.1 23.6 20.2 70 3.8 NNE 33 39 18 21 1009.8 1009.7 0.0
13/04:00pm 26.2 23.7 20.1 69 4.0 N 33 41 18 22 1009.7 1009.6 0.0
13/03:30pm 26.1 23.2 20.0 69 4.0 N 35 41 19 22 1009.9 1009.8 0.0
13/03:00pm 25.8 24.1 19.9 70 3.8 NNE 28 35 15 19 1010.2 1010.1 0.0
13/02:30pm 25.5 23.5 19.2 68 4.0 NNE 28 33 15 18 1010.7 1010.6 0.0
13/02:00pm 25.3 23.3 19.2 69 3.9 NE 28 32 15 17 1011.2 1011.1 0.0
13/01:30pm 25.4 24.0 18.8 67 4.2 NNE 24 28 13 15 1011.7 1011.6 0.0
13/01:00pm 26.1 25.3 18.5 63 4.8 NNE 20 24 11 13 1012.3 1012.2 0.0
13/12:30pm 25.9 25.2 18.6 64 4.6 NNE 20 26 11 14 1012.8 1012.7 0.0
13/12:00pm 26.5 25.8 18.6 62 5.0 N 20 24 11 13 1013.4 1013.3 0.0
13/11:30am 26.4 26.0 18.8 63 4.9 NNE 19 22 10 12 1013.9 1013.8 0.0
13/11:00am 26.1 25.5 18.5 63 4.8 N 19 22 10 12 1014.3 1014.2 0.0
13/10:30am 26.3 26.3 18.2 61 5.1 N 15 22 8 12 1014.6 1014.5 0.0
13/10:00am 26.4 26.2 18.5 62 5.0 N 17 20 9 11 1014.9 1014.8 0.0
13/09:30am 26.2 26.0 17.6 59 5.4 NNW 15 22 8 12 1015.0 1014.9 0.0
13/09:00am 26.1 28.7 18.5 63 4.8 SW 2 7 1 4 1015.2 1015.1 0.0
13/08:30am 24.8 26.8 18.7 69 3.9 SW 6 7 3 4 1015.1 1015.0 0.0
13/08:00am 24.3 26.2 18.5 70 3.7 WSW 6 7 3 4 1014.9 1014.8 0.0
13/07:30am 23.9 25.4 18.8 73 3.2 SW 9 11 5 6 1014.8 1014.7 0.0
13/07:00am 23.3 24.5 18.2 73 3.2 SW 9 11 5 6 1014.6 1014.5 0.0
13/06:30am 23.4 24.5 18.9 76 2.9 SW 11 11 6 6 1014.4 1014.3 0.0
13/06:00am 23.4 24.0 18.7 75 3.0 SW 13 15 7 8 1014.0 1013.9 0.0
13/05:30am 22.9 22.9 18.2 75 2.9 SW 15 17 8 9 1013.8 1013.7 0.0
13/05:00am 22.7 23.4 18.9 79 2.4 WSW 13 17 7 9 1013.6 1013.5 0.0
13/04:30am 23.1 23.9 19.1 78 2.5 WSW 13 15 7 8 1013.2 1013.1 0.0
13/04:00am 23.6 24.1 18.3 72 3.3 WSW 13 19 7 10 1013.2 1013.1 0.0
13/03:30am 25.0 24.5 17.7 64 4.6 N 17 20 9 11 1013.1 1013.0 0.0
13/03:00am 24.9 23.8 17.4 63 4.7 N 19 24 10 13 1013.2 1013.1 0.0
13/02:30am 25.0 23.8 17.0 61 5.0 N 19 24 10 13 1013.4 1013.3 0.0
13/02:00am 25.1 24.6 17.8 64 4.6 N 17 20 9 11 1013.8 1013.7 0.0
13/01:30am 25.0 23.7 17.2 62 4.8 NNE 20 28 11 15 1014.1 1014.0 0.0
13/01:00am 25.1 24.2 17.8 64 4.6 N 19 28 10 15 1014.5 1014.4 0.0
13/12:30am 25.1 23.2 17.6 63 4.7 N 24 28 13 15 1014.9 1014.8 0.0
13/12:00am 25.2 24.6 18.4 66 4.3 N 19 26 10 14 1015.3 1015.2 0.0
 
Date/Time
EST
Temp
°C
App
Temp
°C
Dew
Point
°C
Rel
Hum
%
Delta-T
°C
Wind Press
QNH
hPa
Press
MSL
hPa
Rain since
9am
mm
Dir  Spd
km/h
Gust
km/h
Spd
kts
Gust
kts
12/11:30pm 25.4 24.3 18.6 66 4.3 N 22 30 12 16 1015.5 1015.4 0.0
12/11:00pm 25.2 24.9 18.2 65 4.4 N 17 24 9 13 1015.8 1015.7 0.0
12/10:30pm 25.2 24.5 18.2 65 4.4 N 19 24 10 13 1015.7 1015.6 0.0

Other formats

Comma delimited format used in spreadsheet applications
http://www.bom.gov.au/fwo/IDQ60801/IDQ60801.94295.axf

JavaScript Object Notation format (JSON) in row-major order
http://www.bom.gov.au/fwo/IDQ60801/IDQ60801.94295.json

Data quality

Most of these data are generated automatically and are frequently updated. Quality checks on data are not normally performed. It is possible for incorrect values to appear. Refer to information at About Latest Weather Observations and please check the disclaimer before using these data.